Bratislava — USOA — position and weather

sailwx.info

Track history (hours):
 
Tides and Currents Weather Stations Pressure Air Temp Water Temp Dewpoint Dewpoint Depression Visibility Wind Speed Wind Dir Waves Ship Positions

Bratislava

Last reported at 2018-Jul-10 01:11 UTC. Time now 2018-Jul-21 22:44 UTC.
Position N 46°10' E 018°51'.
Warning: this ship's position is 11 days out of date.

Length 58 m; draft 0.3 m.

Type: Ship. MMSI: 272040900.

Date/timePositionNaut miles runAvg speedWind from/ knotsBaromVisibWave heightAir tempDewpointWater temp
2018-Jul-10 01:11N 46°10' E 018°51'1 3.1
2018-Jul-10 00:50N 46°10' E 018°50'1 3.6
2018-Jul-10 00:30N 46°08' E 018°50'2 3.7
2018-Jul-10 00:00N 46°07' E 018°48'6 3.4
2018-Jul-09 22:21N 46°03' E 018°43'2 3.6
2018-Jul-09 21:46N 46°01' E 018°41'1 3.5
2018-Jul-09 21:23N 45°60' E 018°42'0 0.1
2018-Jul-09 20:55N 45°60' E 018°42'0 0.0
2018-Jul-09 20:09N 45°60' E 018°42'0 0.0
2018-Jul-09 19:57N 45°60' E 018°42'12 1.0
2018-Jul-09 08:16N 45°50' E 018°51'1 3.4
2018-Jul-09 08:00N 45°49' E 018°51'2 3.3
2018-Jul-09 07:28N 45°47' E 018°52'2 3.2
2018-Jul-09 06:57N 45°46' E 018°53'2 3.6
2018-Jul-09 06:30N 45°45' E 018°54'2 3.8
2018-Jul-09 06:01N 45°43' E 018°54'2 3.6
2018-Jul-09 05:31N 45°41' E 018°56'2 3.5
2018-Jul-09 05:00N 45°40' E 018°58'2 3.2
2018-Jul-09 04:30N 45°39' E 018°57'2 3.4
2018-Jul-09 04:01N 45°38' E 018°55'2 3.1
2018-Jul-09 03:31N 45°36' E 018°55'2 3.5
2018-Jul-09 03:00N 45°35' E 018°53'2 3.2
2018-Jul-09 02:30N 45°33' E 018°55'2 3.6
2018-Jul-09 02:00N 45°32' E 018°57'2 3.3
2018-Jul-09 01:31N 45°32' E 018°59'2 3.3
2018-Jul-09 01:01N 45°33' E 019°01'1 2.6
2018-Jul-09 00:31N 45°32' E 019°02'1 2.8
2018-Jul-09 00:01N 45°32' E 019°04'2 3.2
2018-Jul-08 23:31N 45°31' E 019°06'2 3.3
2018-Jul-08 23:01N 45°30' E 019°06'2 3.7
2018-Jul-08 22:31N 45°29' E 019°03'2 3.6
2018-Jul-08 22:01N 45°30' E 019°01'1 2.9
2018-Jul-08 21:30N 45°29' E 018°59'1 1.9
2018-Jul-08 21:01N 45°28' E 018°59'2 3.3
2018-Jul-08 20:31N 45°26' E 019°00'2 3.3
2018-Jul-08 20:00N 45°25' E 019°02'2 3.0
2018-Jul-08 19:30N 45°24' E 019°00'2 3.2
2018-Jul-08 19:00N 45°23' E 018°58'2 3.3
2018-Jul-08 18:30N 45°22' E 018°59'2 3.6
2018-Jul-08 18:00N 45°21' E 019°01'2 3.6
2018-Jul-08 17:29N 45°21' E 019°04'2 3.2
2018-Jul-08 17:01N 45°20' E 019°06'2 3.5
2018-Jul-08 16:30N 45°18' E 019°06'2 3.3
2018-Jul-08 16:00N 45°17' E 019°08'2 3.5
2018-Jul-08 15:30N 45°16' E 019°10'2 3.4
2018-Jul-08 14:58N 45°16' E 019°13'2 3.1
2018-Jul-08 14:24N 45°15' E 019°15'1 2.7
2018-Jul-08 14:00N 45°14' E 019°16'2 3.5
2018-Jul-08 13:30N 45°14' E 019°19'2 3.7
2018-Jul-08 12:59N 45°14' E 019°21'2 3.6
2018-Jul-08 12:31N 45°14' E 019°24'2 3.6
2018-Jul-08 12:01N 45°14' E 019°26'10 2.8
2018-Jul-08 08:28N 45°13' E 019°40'14 2.8
2018-Jul-08 03:15N 45°11' E 020°00'1 4.1
2018-Jul-08 03:00N 45°10' E 020°02'6 3.4
2018-Jul-08 01:18N 45°11' E 020°10'1 3.1
2018-Jul-08 00:56N 45°11' E 020°11'1 3.5
2018-Jul-08 00:31N 45°10' E 020°13'4 3.6
2018-Jul-07 23:16N 45°07' E 020°17'4 3.5
2018-Jul-07 22:13N 45°04' E 020°20'1 3.9
2018-Jul-07 22:00N 45°03' E 020°21'2 3.8
2018-Jul-07 21:30N 45°01' E 020°22'2 3.1
2018-Jul-07 21:00N 45°00' E 020°21'2 3.7
2018-Jul-07 20:28N 44°60' E 020°18'2 3.7
2018-Jul-07 20:00N 44°58' E 020°17'2 3.6
2018-Jul-07 19:30N 44°56' E 020°18'2 3.8
2018-Jul-07 19:01N 44°55' E 020°20'2 4.2
2018-Jul-07 18:31N 44°53' E 020°21'2 4.0
2018-Jul-07 18:01N 44°52' E 020°23'2 4.0
2018-Jul-07 17:31N 44°51' E 020°26'2 4.1
2018-Jul-07 17:01N 44°50' E 020°29'2 4.2
2018-Jul-07 16:30N 44°50' E 020°32'2 4.2
2018-Jul-07 16:00N 44°51' E 020°34'2 4.1
2018-Jul-07 15:31N 44°51' E 020°37'2 3.8
2018-Jul-07 15:01N 44°50' E 020°39'2 4.0
2018-Jul-07 14:31N 44°48' E 020°38'2 4.3
2018-Jul-07 14:00N 44°46' E 020°38'2 4.1
2018-Jul-07 13:30N 44°44' E 020°40'2 4.2
2018-Jul-07 13:00N 44°43' E 020°42'2 4.2
2018-Jul-07 12:30N 44°41' E 020°43'2 4.0
2018-Jul-07 12:00N 44°40' E 020°46'2 4.0
2018-Jul-07 11:30N 44°39' E 020°48'7 0.6
2018-Jul-07 00:11N 44°42' E 020°58'0 0.0
2018-Jul-06 23:59N 44°42' E 020°58'0 0.0
2018-Jul-06 23:30N 44°42' E 020°58'0 0.0
2018-Jul-06 21:26N 44°42' E 020°58'0 0.0
2018-Jul-06 21:00N 44°42' E 020°58'0 0.0
2018-Jul-06 20:31N 44°42' E 020°58'0 0.0
2018-Jul-06 20:01N 44°42' E 020°58'0 0.0
2018-Jul-06 19:30N 44°42' E 020°58'0 0.0
2018-Jul-06 18:58N 44°42' E 020°58'0 0.0
2018-Jul-06 18:30N 44°42' E 020°58'0 0.0
2018-Jul-06 18:00N 44°42' E 020°58'0 0.1
2018-Jul-06 17:31N 44°42' E 020°58'0 0.5
2018-Jul-06 17:01N 44°42' E 020°58'0 0.0
2018-Jul-06 16:30N 44°42' E 020°58'0 0.0
2018-Jul-06 16:00N 44°42' E 020°58'0 0.0
2018-Jul-06 15:31N 44°42' E 020°58'0 0.0
2018-Jul-06 15:00N 44°42' E 020°58'0 0.0
2018-Jul-06 14:31N 44°42' E 020°58'0 0.0
2018-Jul-06 14:01N 44°42' E 020°58'0 0.0
2018-Jul-06 13:30N 44°42' E 020°58'0 0.0
2018-Jul-06 13:00N 44°42' E 020°58'0 0.0
2018-Jul-06 12:31N 44°42' E 020°58'0 0.0
2018-Jul-06 12:01N 44°42' E 020°58'0 0.0
2018-Jul-06 11:31N 44°42' E 020°58'0 0.0
2018-Jul-06 10:20N 44°42' E 020°58'0 0.0
2018-Jul-06 00:08N 44°42' E 020°58'0 0.0
2018-Jul-06 00:01N 44°42' E 020°58'0 0.0
2018-Jul-05 23:30N 44°42' E 020°58'0 0.0
2018-Jul-05 23:00N 44°42' E 020°58'0 0.0
2018-Jul-05 22:30N 44°42' E 020°58'0 0.0
2018-Jul-05 22:00N 44°42' E 020°58'0 0.0
2018-Jul-05 21:30N 44°42' E 020°58'0 0.0
2018-Jul-05 21:00N 44°42' E 020°58'0 0.0
2018-Jul-05 20:27N 44°42' E 020°58'0 0.0
2018-Jul-05 20:00N 44°42' E 020°58'0 0.0
2018-Jul-05 19:30N 44°42' E 020°58'0 0.5
2018-Jul-05 19:00N 44°42' E 020°58'2 3.7
2018-Jul-05 18:31N 44°41' E 020°56'0 0.5
2018-Jul-05 18:00N 44°40' E 020°56'2 4.7
2018-Jul-05 17:31N 44°42' E 020°58'0 0.0
2018-Jul-05 17:01N 44°42' E 020°58'0 0.5
2018-Jul-05 16:31N 44°42' E 020°58'0 0.0
2018-Jul-05 16:01N 44°42' E 020°58'0 0.0
2018-Jul-05 15:30N 44°42' E 020°58'0 0.0
2018-Jul-05 15:01N 44°42' E 020°58'0 0.0
2018-Jul-05 14:01N 44°42' E 020°58'0 0.0
2018-Jul-05 13:30N 44°42' E 020°58'0 0.0
2018-Jul-05 13:01N 44°42' E 020°58'0 0.0
2018-Jul-05 12:31N 44°42' E 020°58'0 0.0
2018-Jul-05 11:57N 44°42' E 020°58'0 0.0
2018-Jul-05 11:30N 44°42' E 020°58'0 0.0
2018-Jul-05 11:00N 44°42' E 020°58'0 0.0
2018-Jul-05 10:30N 44°42' E 020°58'0 0.0
2018-Jul-05 09:41N 44°42' E 020°58'0 0.0
2018-Jul-05 09:30N 44°42' E 020°58'0 0.0
2018-Jul-05 00:48N 44°42' E 020°58'0 0.0
2018-Jul-05 00:30N 44°42' E 020°58'0 0.0
2018-Jul-05 00:00N 44°42' E 020°58'0 0.0
2018-Jul-04 23:31N 44°42' E 020°58'0 0.0
2018-Jul-04 23:00N 44°42' E 020°58'0 0.0
2018-Jul-04 22:30N 44°42' E 020°58'0 0.0
2018-Jul-04 22:01N 44°42' E 020°58'0 0.0
2018-Jul-04 21:30N 44°42' E 020°58'0 0.0
2018-Jul-04 21:01N 44°42' E 020°58'0 0.0
2018-Jul-04 20:30N 44°42' E 020°58'0 0.0
2018-Jul-04 20:00N 44°42' E 020°58'0 0.0
2018-Jul-04 19:30N 44°42' E 020°58'0 0.0
2018-Jul-04 19:01N 44°42' E 020°58'0 0.0
2018-Jul-04 18:31N 44°42' E 020°58'0 0.0
2018-Jul-04 18:00N 44°42' E 020°58'0 0.0
2018-Jul-04 17:30N 44°42' E 020°58'0 0.0
2018-Jul-04 17:00N 44°42' E 020°58'0 0.0
2018-Jul-04 16:30N 44°42' E 020°58'0 0.0
2018-Jul-04 16:00N 44°42' E 020°58'0 0.0
2018-Jul-04 15:30N 44°42' E 020°58'0 0.0
2018-Jul-04 15:00N 44°42' E 020°58'0 0.0
2018-Jul-04 14:30N 44°42' E 020°58'0 0.0
2018-Jul-04 14:00N 44°42' E 020°58'1 1.4
2018-Jul-04 13:30N 44°42' E 020°58'1 0.8
2018-Jul-04 12:39N 44°42' E 020°58'0 0.0
2018-Jul-04 12:30N 44°42' E 020°58'0 0.0
2018-Jul-04 10:47N 44°42' E 020°58'0 0.0
2018-Jul-04 10:30N 44°42' E 020°58'0 0.0
2018-Jul-04 05:38N 44°42' E 020°58'0 0.5
2018-Jul-04 05:30N 44°42' E 020°58'0 0.1
2018-Jul-03 22:07N 44°42' E 020°58'0 0.0
2018-Jul-03 22:01N 44°42' E 020°58'0 0.0
2018-Jul-03 21:30N 44°42' E 020°58'0 0.0
2018-Jul-03 21:00N 44°42' E 020°58'0 0.0
2018-Jul-03 20:30N 44°42' E 020°58'0 0.0
2018-Jul-03 20:00N 44°42' E 020°58'0 0.3
2018-Jul-03 18:47N 44°42' E 020°58'0 0.0
2018-Jul-03 18:30N 44°42' E 020°58'0 0.0
2018-Jul-03 18:00N 44°42' E 020°58'0 0.0
2018-Jul-03 17:31N 44°42' E 020°58'0 0.0
2018-Jul-03 17:00N 44°42' E 020°58'0 0.0
2018-Jul-03 16:31N 44°42' E 020°58'0 0.0
2018-Jul-03 16:00N 44°42' E 020°58'0 0.0
2018-Jul-03 15:30N 44°42' E 020°58'0 0.0
2018-Jul-03 15:01N 44°42' E 020°58'0 0.0
2018-Jul-03 14:30N 44°42' E 020°58'0 0.2
2018-Jul-03 14:00N 44°42' E 020°58'1 1.5
2018-Jul-03 13:30N 44°42' E 020°57'1 1.7
2018-Jul-03 13:00N 44°41' E 020°56'2 3.1
2018-Jul-03 12:30N 44°40' E 020°55'0 0.0
2018-Jul-03 12:00N 44°40' E 020°55'1 1.6
2018-Jul-03 11:30N 44°41' E 020°56'2 3.9
2018-Jul-03 11:01N 44°42' E 020°58'45 2.2
2018-Jul-02 14:11N 44°36' E 022°01'1 3.8
2018-Jul-02 14:01N 44°35' E 022°02'2 3.7
2018-Jul-02 13:31N 44°34' E 022°02'2 3.7
2018-Jul-02 13:00N 44°32' E 022°03'2 3.7
2018-Jul-02 12:30N 44°30' E 022°05'2 3.9
2018-Jul-02 12:01N 44°29' E 022°07'2 3.9
2018-Jul-02 11:30N 44°28' E 022°09'2 3.7
2018-Jul-02 11:01N 44°29' E 022°11'  
Track history (hours):
 
Tides and Currents Weather Stations Pressure Air Temp Water Temp Dewpoint Dewpoint Depression Visibility Wind Speed Wind Dir Waves Ship Positions

Bratislava

Last reported at 2018-Jul-10 01:11 UTC. Time now 2018-Jul-21 22:44 UTC.
Position N 46°10' E 018°51'.
Warning: this ship's position is 11 days out of date.

Length 58 m; draft 0.3 m.

Type: Ship. MMSI: 272040900.

Date/timePositionNaut miles runAvg speedWind from/ knotsBaromVisibWave heightAir tempDewpointWater temp
2018-Jul-10 01:11N 46°10' E 018°51'1 3.1
2018-Jul-10 00:50N 46°10' E 018°50'1 3.6
2018-Jul-10 00:30N 46°08' E 018°50'2 3.7
2018-Jul-10 00:00N 46°07' E 018°48'6 3.4
2018-Jul-09 22:21N 46°03' E 018°43'2 3.6
2018-Jul-09 21:46N 46°01' E 018°41'1 3.5
2018-Jul-09 21:23N 45°60' E 018°42'0 0.1
2018-Jul-09 20:55N 45°60' E 018°42'0 0.0
2018-Jul-09 20:09N 45°60' E 018°42'0 0.0
2018-Jul-09 19:57N 45°60' E 018°42'12 1.0
2018-Jul-09 08:16N 45°50' E 018°51'1 3.4
2018-Jul-09 08:00N 45°49' E 018°51'2 3.3
2018-Jul-09 07:28N 45°47' E 018°52'2 3.2
2018-Jul-09 06:57N 45°46' E 018°53'2 3.6
2018-Jul-09 06:30N 45°45' E 018°54'2 3.8
2018-Jul-09 06:01N 45°43' E 018°54'2 3.6
2018-Jul-09 05:31N 45°41' E 018°56'2 3.5
2018-Jul-09 05:00N 45°40' E 018°58'2 3.2
2018-Jul-09 04:30N 45°39' E 018°57'2 3.4
2018-Jul-09 04:01N 45°38' E 018°55'2 3.1
2018-Jul-09 03:31N 45°36' E 018°55'2 3.5
2018-Jul-09 03:00N 45°35' E 018°53'2 3.2
2018-Jul-09 02:30N 45°33' E 018°55'2 3.6
2018-Jul-09 02:00N 45°32' E 018°57'2 3.3
2018-Jul-09 01:31N 45°32' E 018°59'2 3.3
2018-Jul-09 01:01N 45°33' E 019°01'1 2.6
2018-Jul-09 00:31N 45°32' E 019°02'1 2.8
2018-Jul-09 00:01N 45°32' E 019°04'2 3.2
2018-Jul-08 23:31N 45°31' E 019°06'2 3.3
2018-Jul-08 23:01N 45°30' E 019°06'2 3.7
2018-Jul-08 22:31N 45°29' E 019°03'2 3.6
2018-Jul-08 22:01N 45°30' E 019°01'1 2.9
2018-Jul-08 21:30N 45°29' E 018°59'1 1.9
2018-Jul-08 21:01N 45°28' E 018°59'2 3.3
2018-Jul-08 20:31N 45°26' E 019°00'2 3.3
2018-Jul-08 20:00N 45°25' E 019°02'2 3.0
2018-Jul-08 19:30N 45°24' E 019°00'2 3.2
2018-Jul-08 19:00N 45°23' E 018°58'2 3.3
2018-Jul-08 18:30N 45°22' E 018°59'2 3.6
2018-Jul-08 18:00N 45°21' E 019°01'2 3.6
2018-Jul-08 17:29N 45°21' E 019°04'2 3.2
2018-Jul-08 17:01N 45°20' E 019°06'2 3.5
2018-Jul-08 16:30N 45°18' E 019°06'2 3.3
2018-Jul-08 16:00N 45°17' E 019°08'2 3.5
2018-Jul-08 15:30N 45°16' E 019°10'2 3.4
2018-Jul-08 14:58N 45°16' E 019°13'2 3.1
2018-Jul-08 14:24N 45°15' E 019°15'1 2.7
2018-Jul-08 14:00N 45°14' E 019°16'2 3.5
2018-Jul-08 13:30N 45°14' E 019°19'2 3.7
2018-Jul-08 12:59N 45°14' E 019°21'2 3.6
2018-Jul-08 12:31N 45°14' E 019°24'2 3.6
2018-Jul-08 12:01N 45°14' E 019°26'10 2.8
2018-Jul-08 08:28N 45°13' E 019°40'14 2.8
2018-Jul-08 03:15N 45°11' E 020°00'1 4.1
2018-Jul-08 03:00N 45°10' E 020°02'6 3.4
2018-Jul-08 01:18N 45°11' E 020°10'1 3.1
2018-Jul-08 00:56N 45°11' E 020°11'1 3.5
2018-Jul-08 00:31N 45°10' E 020°13'4 3.6
2018-Jul-07 23:16N 45°07' E 020°17'4 3.5
2018-Jul-07 22:13N 45°04' E 020°20'1 3.9
2018-Jul-07 22:00N 45°03' E 020°21'2 3.8
2018-Jul-07 21:30N 45°01' E 020°22'2 3.1
2018-Jul-07 21:00N 45°00' E 020°21'2 3.7
2018-Jul-07 20:28N 44°60' E 020°18'2 3.7
2018-Jul-07 20:00N 44°58' E 020°17'2 3.6
2018-Jul-07 19:30N 44°56' E 020°18'2 3.8
2018-Jul-07 19:01N 44°55' E 020°20'2 4.2
2018-Jul-07 18:31N 44°53' E 020°21'2 4.0
2018-Jul-07 18:01N 44°52' E 020°23'2 4.0
2018-Jul-07 17:31N 44°51' E 020°26'2 4.1
2018-Jul-07 17:01N 44°50' E 020°29'2 4.2
2018-Jul-07 16:30N 44°50' E 020°32'2 4.2
2018-Jul-07 16:00N 44°51' E 020°34'2 4.1
2018-Jul-07 15:31N 44°51' E 020°37'2 3.8
2018-Jul-07 15:01N 44°50' E 020°39'2 4.0
2018-Jul-07 14:31N 44°48' E 020°38'2 4.3
2018-Jul-07 14:00N 44°46' E 020°38'2 4.1
2018-Jul-07 13:30N 44°44' E 020°40'2 4.2
2018-Jul-07 13:00N 44°43' E 020°42'2 4.2
2018-Jul-07 12:30N 44°41' E 020°43'2 4.0
2018-Jul-07 12:00N 44°40' E 020°46'2 4.0
2018-Jul-07 11:30N 44°39' E 020°48'7 0.6
2018-Jul-07 00:11N 44°42' E 020°58'0 0.0
2018-Jul-06 23:59N 44°42' E 020°58'0 0.0
2018-Jul-06 23:30N 44°42' E 020°58'0 0.0
2018-Jul-06 21:26N 44°42' E 020°58'0 0.0
2018-Jul-06 21:00N 44°42' E 020°58'0 0.0
2018-Jul-06 20:31N 44°42' E 020°58'0 0.0
2018-Jul-06 20:01N 44°42' E 020°58'0 0.0
2018-Jul-06 19:30N 44°42' E 020°58'0 0.0
2018-Jul-06 18:58N 44°42' E 020°58'0 0.0
2018-Jul-06 18:30N 44°42' E 020°58'0 0.0
2018-Jul-06 18:00N 44°42' E 020°58'0 0.1
2018-Jul-06 17:31N 44°42' E 020°58'0 0.5
2018-Jul-06 17:01N 44°42' E 020°58'0 0.0
2018-Jul-06 16:30N 44°42' E 020°58'0 0.0
2018-Jul-06 16:00N 44°42' E 020°58'0 0.0
2018-Jul-06 15:31N 44°42' E 020°58'0 0.0
2018-Jul-06 15:00N 44°42' E 020°58'0 0.0
2018-Jul-06 14:31N 44°42' E 020°58'0 0.0
2018-Jul-06 14:01N 44°42' E 020°58'0 0.0
2018-Jul-06 13:30N 44°42' E 020°58'0 0.0
2018-Jul-06 13:00N 44°42' E 020°58'0 0.0
2018-Jul-06 12:31N 44°42' E 020°58'0 0.0
2018-Jul-06 12:01N 44°42' E 020°58'0 0.0
2018-Jul-06 11:31N 44°42' E 020°58'0 0.0
2018-Jul-06 10:20N 44°42' E 020°58'0 0.0
2018-Jul-06 00:08N 44°42' E 020°58'0 0.0
2018-Jul-06 00:01N 44°42' E 020°58'0 0.0
2018-Jul-05 23:30N 44°42' E 020°58'0 0.0
2018-Jul-05 23:00N 44°42' E 020°58'0 0.0
2018-Jul-05 22:30N 44°42' E 020°58'0 0.0
2018-Jul-05 22:00N 44°42' E 020°58'0 0.0
2018-Jul-05 21:30N 44°42' E 020°58'0 0.0
2018-Jul-05 21:00N 44°42' E 020°58'0 0.0
2018-Jul-05 20:27N 44°42' E 020°58'0 0.0
2018-Jul-05 20:00N 44°42' E 020°58'0 0.0
2018-Jul-05 19:30N 44°42' E 020°58'0 0.5
2018-Jul-05 19:00N 44°42' E 020°58'2 3.7
2018-Jul-05 18:31N 44°41' E 020°56'0 0.5
2018-Jul-05 18:00N 44°40' E 020°56'2 4.7
2018-Jul-05 17:31N 44°42' E 020°58'0 0.0
2018-Jul-05 17:01N 44°42' E 020°58'0 0.5
2018-Jul-05 16:31N 44°42' E 020°58'0 0.0
2018-Jul-05 16:01N 44°42' E 020°58'0 0.0
2018-Jul-05 15:30N 44°42' E 020°58'0 0.0
2018-Jul-05 15:01N 44°42' E 020°58'0 0.0
2018-Jul-05 14:01N 44°42' E 020°58'0 0.0
2018-Jul-05 13:30N 44°42' E 020°58'0 0.0
2018-Jul-05 13:01N 44°42' E 020°58'0 0.0
2018-Jul-05 12:31N 44°42' E 020°58'0 0.0
2018-Jul-05 11:57N 44°42' E 020°58'0 0.0
2018-Jul-05 11:30N 44°42' E 020°58'0 0.0
2018-Jul-05 11:00N 44°42' E 020°58'0 0.0
2018-Jul-05 10:30N 44°42' E 020°58'0 0.0
2018-Jul-05 09:41N 44°42' E 020°58'0 0.0
2018-Jul-05 09:30N 44°42' E 020°58'0 0.0
2018-Jul-05 00:48N 44°42' E 020°58'0 0.0
2018-Jul-05 00:30N 44°42' E 020°58'0 0.0
2018-Jul-05 00:00N 44°42' E 020°58'0 0.0
2018-Jul-04 23:31N 44°42' E 020°58'0 0.0
2018-Jul-04 23:00N 44°42' E 020°58'0 0.0
2018-Jul-04 22:30N 44°42' E 020°58'0 0.0
2018-Jul-04 22:01N 44°42' E 020°58'0 0.0
2018-Jul-04 21:30N 44°42' E 020°58'0 0.0
2018-Jul-04 21:01N 44°42' E 020°58'0 0.0
2018-Jul-04 20:30N 44°42' E 020°58'0 0.0
2018-Jul-04 20:00N 44°42' E 020°58'0 0.0
2018-Jul-04 19:30N 44°42' E 020°58'0 0.0
2018-Jul-04 19:01N 44°42' E 020°58'0 0.0
2018-Jul-04 18:31N 44°42' E 020°58'0 0.0
2018-Jul-04 18:00N 44°42' E 020°58'0 0.0
2018-Jul-04 17:30N 44°42' E 020°58'0 0.0
2018-Jul-04 17:00N 44°42' E 020°58'0 0.0
2018-Jul-04 16:30N 44°42' E 020°58'0 0.0
2018-Jul-04 16:00N 44°42' E 020°58'0 0.0
2018-Jul-04 15:30N 44°42' E 020°58'0 0.0
2018-Jul-04 15:00N 44°42' E 020°58'0 0.0
2018-Jul-04 14:30N 44°42' E 020°58'0 0.0
2018-Jul-04 14:00N 44°42' E 020°58'1 1.4
2018-Jul-04 13:30N 44°42' E 020°58'1 0.8
2018-Jul-04 12:39N 44°42' E 020°58'0 0.0
2018-Jul-04 12:30N 44°42' E 020°58'0 0.0
2018-Jul-04 10:47N 44°42' E 020°58'0 0.0
2018-Jul-04 10:30N 44°42' E 020°58'0 0.0
2018-Jul-04 05:38N 44°42' E 020°58'0 0.5
2018-Jul-04 05:30N 44°42' E 020°58'0 0.1
2018-Jul-03 22:07N 44°42' E 020°58'0 0.0
2018-Jul-03 22:01N 44°42' E 020°58'0 0.0
2018-Jul-03 21:30N 44°42' E 020°58'0 0.0
2018-Jul-03 21:00N 44°42' E 020°58'0 0.0
2018-Jul-03 20:30N 44°42' E 020°58'0 0.0
2018-Jul-03 20:00N 44°42' E 020°58'0 0.3
2018-Jul-03 18:47N 44°42' E 020°58'0 0.0
2018-Jul-03 18:30N 44°42' E 020°58'0 0.0
2018-Jul-03 18:00N 44°42' E 020°58'0 0.0
2018-Jul-03 17:31N 44°42' E 020°58'0 0.0
2018-Jul-03 17:00N 44°42' E 020°58'0 0.0
2018-Jul-03 16:31N 44°42' E 020°58'0 0.0
2018-Jul-03 16:00N 44°42' E 020°58'0 0.0
2018-Jul-03 15:30N 44°42' E 020°58'0 0.0
2018-Jul-03 15:01N 44°42' E 020°58'0 0.0
2018-Jul-03 14:30N 44°42' E 020°58'0 0.2
2018-Jul-03 14:00N 44°42' E 020°58'1 1.5
2018-Jul-03 13:30N 44°42' E 020°57'1 1.7
2018-Jul-03 13:00N 44°41' E 020°56'2 3.1
2018-Jul-03 12:30N 44°40' E 020°55'0 0.0
2018-Jul-03 12:00N 44°40' E 020°55'1 1.6
2018-Jul-03 11:30N 44°41' E 020°56'2 3.9
2018-Jul-03 11:01N 44°42' E 020°58'45 2.2
2018-Jul-02 14:11N 44°36' E 022°01'1 3.8
2018-Jul-02 14:01N 44°35' E 022°02'2 3.7
2018-Jul-02 13:31N 44°34' E 022°02'2 3.7
2018-Jul-02 13:00N 44°32' E 022°03'2 3.7
2018-Jul-02 12:30N 44°30' E 022°05'2 3.9
2018-Jul-02 12:01N 44°29' E 022°07'2 3.9
2018-Jul-02 11:30N 44°28' E 022°09'2 3.7
2018-Jul-02 11:01N 44°29' E 022°11'  

Dump ship's entire track history